Time;durP1;ratioP1;P1;durP2;ratioP2;P2;SDS_P1;SDS_P2;PMS_P1;PMS_P2;Temp;Humidity;BMP_temperature;BMP_pressure;BME280_temperature;BME280_humidity;BME280_pressure;Samples;Min_cycle;Max_cycle;Signal;HPM_P1;HPM_P2
2022/09/10 00:00:09;;;;;;;3.27;1.43;;;;;;;;;;4969966;28;20198;-80
2022/09/10 00:03:14;;;;;;;6.23;1.10;;;;;;;;;;4971578;28;20187;-79
2022/09/10 00:06:19;;;;;;;2.93;1.30;;;;;;;;;;4970843;28;20645;-79
2022/09/10 00:09:24;;;;;;;2.30;1.30;;;;;;;;;;4970684;28;20223;-79
2022/09/10 00:12:28;;;;;;;3.23;1.10;;;;;;;;;;4971202;28;20222;-80
2022/09/10 00:15:39;;;;;;;3.20;1.47;;;;;;;;;;4960655;28;20179;-80
2022/09/10 00:18:45;;;;;;;2.60;1.20;;;;;;;;;;4981901;28;20194;-80
2022/09/10 00:21:49;;;;;;;4.63;1.23;;;;;;;;;;4970628;28;20693;-80
2022/09/10 00:24:55;;;;;;;4.53;1.40;;;;;;;;;;4980276;28;20179;-81
2022/09/10 00:27:59;;;;;;;1.77;1.10;;;;;;;;;;4956162;28;20207;-80
2022/09/10 00:31:04;;;;;;;1.50;1.10;;;;;;;;;;4968978;28;20234;-81
2022/09/10 00:34:10;;;;;;;3.27;1.77;;;;;;;;;;4991315;28;20183;-81
2022/09/10 00:37:15;;;;;;;4.73;1.20;;;;;;;;;;4967962;28;20661;-80
2022/09/10 00:40:19;;;;;;;1.47;1.07;;;;;;;;;;4968689;28;20183;-80
2022/09/10 00:43:23;;;;;;;3.90;1.30;;;;;;;;;;4992438;28;20179;-79
2022/09/10 00:46:35;;;;;;;5.67;1.27;;;;;;;;;;4980036;28;20658;-79
2022/09/10 00:49:43;;;;;;;1.10;1.00;;;;;;;;;;4968807;28;20214;-79
2022/09/10 00:52:51;;;;;;;1.30;0.90;;;;;;;;;;4968820;28;20214;-79
2022/09/10 00:56:03;;;;;;;2.30;1.20;;;;;;;;;;4969729;28;20191;-79
2022/09/10 00:59:12;;;;;;;1.97;1.10;;;;;;;;;;4958604;28;20217;-80
2022/09/10 01:02:16;;;;;;;2.73;1.10;;;;;;;;;;4991350;28;20219;-79
2022/09/10 01:05:21;;;;;;;1.83;1.40;;;;;;;;;;4969450;28;20637;-80
2022/09/10 01:08:30;;;;;;;3.80;0.90;;;;;;;;;;4980312;28;20203;-80
2022/09/10 01:11:50;;;;;;;2.23;1.07;;;;;;;;;;4980133;28;20211;-79
2022/09/10 01:15:09;;;;;;;2.03;1.37;;;;;;;;;;4990837;28;20546;-80
2022/09/10 01:18:34;;;;;;;2.33;1.00;;;;;;;;;;4958689;28;20179;-80
2022/09/10 01:22:06;;;;;;;1.67;1.10;;;;;;;;;;4990998;28;20222;-79
2022/09/10 01:25:21;;;;;;;1.37;0.90;;;;;;;;;;4957877;28;20182;-79
2022/09/10 01:28:39;;;;;;;0.93;0.80;;;;;;;;;;4980652;28;20188;-79
2022/09/10 01:31:58;;;;;;;3.80;1.20;;;;;;;;;;4979909;28;20211;-80
2022/09/10 01:35:15;;;;;;;2.47;1.20;;;;;;;;;;4969618;28;20175;-79
2022/09/10 01:38:30;;;;;;;2.77;1.07;;;;;;;;;;4958215;28;20183;-79
2022/09/10 01:41:35;;;;;;;1.37;0.77;;;;;;;;;;4980648;28;20215;-80
2022/09/10 01:44:49;;;;;;;1.00;0.90;;;;;;;;;;4980411;28;20179;-79
2022/09/10 01:48:08;;;;;;;1.40;1.10;;;;;;;;;;4980102;28;20187;-78
2022/09/10 01:51:33;;;;;;;2.50;1.00;;;;;;;;;;4978598;28;20705;-79
2022/09/10 01:55:10;;;;;;;2.30;1.00;;;;;;;;;;4989893;28;20183;-79
2022/09/10 01:58:41;;;;;;;1.57;1.00;;;;;;;;;;4979892;28;20187;-79
2022/09/10 02:02:02;;;;;;;4.03;1.00;;;;;;;;;;4968991;28;20219;-80
2022/09/10 02:05:08;;;;;;;2.13;0.90;;;;;;;;;;4990704;28;20179;-80
2022/09/10 02:08:19;;;;;;;1.67;0.90;;;;;;;;;;4967314;28;20202;-80
2022/09/10 02:11:24;;;;;;;0.80;0.80;;;;;;;;;;4979635;28;20234;-80
2022/09/10 02:14:30;;;;;;;5.67;1.10;;;;;;;;;;4979532;28;20174;-80
2022/09/10 02:17:48;;;;;;;2.57;1.00;;;;;;;;;;4969674;28;20179;-80
2022/09/10 02:20:56;;;;;;;2.07;1.07;;;;;;;;;;4968481;28;20222;-80
2022/09/10 02:24:06;;;;;;;3.93;1.07;;;;;;;;;;4990886;28;20634;-80
2022/09/10 02:27:11;;;;;;;3.13;1.00;;;;;;;;;;4979464;28;20195;-80
2022/09/10 02:30:15;;;;;;;2.03;1.20;;;;;;;;;;4968695;28;20215;-80
2022/09/10 02:33:20;;;;;;;1.40;0.80;;;;;;;;;;4979581;28;20179;-80
2022/09/10 02:36:25;;;;;;;1.20;0.80;;;;;;;;;;4968939;28;20187;-80
2022/09/10 02:39:30;;;;;;;5.90;0.90;;;;;;;;;;4979734;28;20178;-79
2022/09/10 02:42:37;;;;;;;1.73;1.00;;;;;;;;;;4978721;28;20685;-79
2022/09/10 02:45:41;;;;;;;1.37;0.87;;;;;;;;;;4968127;28;20179;-79
2022/09/10 02:48:46;;;;;;;1.43;0.83;;;;;;;;;;4968951;28;20179;-79
2022/09/10 02:51:51;;;;;;;2.27;0.90;;;;;;;;;;4971041;28;20222;-79
2022/09/10 02:54:55;;;;;;;3.30;0.90;;;;;;;;;;4971800;28;20174;-79
2022/09/10 02:57:59;;;;;;;1.53;0.70;;;;;;;;;;4982196;28;20198;-79
2022/09/10 03:01:08;;;;;;;2.43;0.90;;;;;;;;;;4982111;28;20218;-79
2022/09/10 03:04:14;;;;;;;1.57;0.90;;;;;;;;;;4982691;28;20183;-79
2022/09/10 03:07:19;;;;;;;1.50;0.80;;;;;;;;;;4983257;28;20202;-79
2022/09/10 03:10:23;;;;;;;3.33;0.90;;;;;;;;;;4972060;28;20214;-78
2022/09/10 03:13:27;;;;;;;3.60;1.07;;;;;;;;;;4982188;28;20183;-78
2022/09/10 03:16:34;;;;;;;4.77;1.27;;;;;;;;;;4970853;28;20179;-79
2022/09/10 03:19:40;;;;;;;1.63;0.90;;;;;;;;;;4974592;28;20182;-79
2022/09/10 03:22:46;;;;;;;2.53;0.90;;;;;;;;;;4996682;28;20221;-79
2022/09/10 03:25:53;;;;;;;1.47;0.70;;;;;;;;;;4975758;28;20638;-79
2022/09/10 03:29:03;;;;;;;6.23;1.00;;;;;;;;;;4979683;28;20186;-79
2022/09/10 03:32:12;;;;;;;3.90;0.87;;;;;;;;;;4977100;28;20709;-78
2022/09/10 03:35:17;;;;;;;1.53;0.80;;;;;;;;;;4975757;28;20199;-79
2022/09/10 03:38:22;;;;;;;2.40;0.80;;;;;;;;;;4997842;28;20187;-79
2022/09/10 03:41:27;;;;;;;2.50;1.10;;;;;;;;;;4985939;28;20219;-79
2022/09/10 03:44:41;;;;;;;3.33;1.00;;;;;;;;;;4962162;28;20187;-78
2022/09/10 03:47:46;;;;;;;1.43;1.07;;;;;;;;;;4973723;28;20179;-79
2022/09/10 03:50:51;;;;;;;2.37;1.10;;;;;;;;;;4973413;28;20215;-79
2022/09/10 03:53:58;;;;;;;1.27;1.00;;;;;;;;;;4972850;28;20175;-80
2022/09/10 03:57:02;;;;;;;2.13;1.13;;;;;;;;;;4972917;28;20531;-79
2022/09/10 04:00:12;;;;;;;2.47;0.93;;;;;;;;;;4972011;28;20179;-79
2022/09/10 04:03:19;;;;;;;2.70;1.00;;;;;;;;;;4972201;28;20179;-79
2022/09/10 04:06:23;;;;;;;6.13;0.93;;;;;;;;;;4993260;28;20178;-79
2022/09/10 04:09:27;;;;;;;1.77;1.40;;;;;;;;;;4981800;28;20178;-78
2022/09/10 04:12:32;;;;;;;2.63;0.77;;;;;;;;;;4970377;28;20219;-79
2022/09/10 04:15:36;;;;;;;3.70;1.10;;;;;;;;;;4970661;28;20183;-79
2022/09/10 04:18:41;;;;;;;4.40;1.23;;;;;;;;;;4969702;28;20179;-79
2022/09/10 04:21:47;;;;;;;2.00;0.80;;;;;;;;;;4957878;28;20210;-78
2022/09/10 04:24:51;;;;;;;1.67;0.90;;;;;;;;;;4969047;28;20179;-80
2022/09/10 04:27:55;;;;;;;2.77;1.00;;;;;;;;;;4980274;28;20183;-80
2022/09/10 04:31:01;;;;;;;4.47;1.20;;;;;;;;;;4980376;28;20226;-80
2022/09/10 04:34:06;;;;;;;2.17;0.90;;;;;;;;;;4957640;28;20183;-80
2022/09/10 04:37:11;;;;;;;3.97;1.40;;;;;;;;;;4958320;28;20182;-79
2022/09/10 04:40:15;;;;;;;2.77;1.00;;;;;;;;;;4969352;28;20175;-80
2022/09/10 04:43:20;;;;;;;0.90;0.80;;;;;;;;;;4991702;28;20179;-79
2022/09/10 04:46:24;;;;;;;2.83;1.00;;;;;;;;;;4968855;28;20210;-80
2022/09/10 04:49:31;;;;;;;4.00;1.13;;;;;;;;;;4969369;28;20199;-79
2022/09/10 04:52:35;;;;;;;1.93;1.00;;;;;;;;;;4968715;28;20215;-80
2022/09/10 04:55:42;;;;;;;3.90;1.17;;;;;;;;;;4980108;28;20179;-79
2022/09/10 04:58:47;;;;;;;2.63;1.00;;;;;;;;;;4991101;28;20523;-79
2022/09/10 05:01:51;;;;;;;2.27;1.00;;;;;;;;;;4990794;28;20215;-80
2022/09/10 05:04:56;;;;;;;4.90;1.10;;;;;;;;;;4979852;28;20208;-80
2022/09/10 05:08:02;;;;;;;1.70;0.97;;;;;;;;;;4978866;28;20561;-79
2022/09/10 05:11:07;;;;;;;5.33;1.00;;;;;;;;;;4967367;28;20226;-79
2022/09/10 05:14:13;;;;;;;2.00;1.00;;;;;;;;;;4978593;28;20638;-79
2022/09/10 05:17:17;;;;;;;1.97;1.00;;;;;;;;;;4966797;28;20207;-79
2022/09/10 05:20:21;;;;;;;3.13;1.00;;;;;;;;;;4978014;28;20202;-79
2022/09/10 05:23:28;;;;;;;1.10;1.00;;;;;;;;;;4967520;28;20182;-79
2022/09/10 05:26:34;;;;;;;1.63;1.00;;;;;;;;;;4966956;28;20183;-79
2022/09/10 05:29:38;;;;;;;3.23;1.10;;;;;;;;;;4956066;28;20183;-79
2022/09/10 05:32:43;;;;;;;3.10;1.03;;;;;;;;;;4955899;28;20215;-79
2022/09/10 05:35:50;;;;;;;3.37;0.90;;;;;;;;;;4978529;28;20523;-79
2022/09/10 05:38:57;;;;;;;2.43;1.00;;;;;;;;;;4956454;28;20183;-79
2022/09/10 05:42:02;;;;;;;2.20;1.13;;;;;;;;;;4977746;28;20685;-79
2022/09/10 05:45:08;;;;;;;2.70;1.00;;;;;;;;;;4989248;28;20195;-79
2022/09/10 05:48:13;;;;;;;4.63;1.30;;;;;;;;;;4978839;28;20654;-79
2022/09/10 05:51:18;;;;;;;3.30;1.00;;;;;;;;;;4967327;28;20218;-79
2022/09/10 05:54:23;;;;;;;2.33;0.90;;;;;;;;;;4967273;28;20191;-80
2022/09/10 05:57:27;;;;;;;2.07;1.03;;;;;;;;;;4955776;28;20519;-79
2022/09/10 06:00:32;;;;;;;1.10;0.80;;;;;;;;;;4966982;28;20186;-79
2022/09/10 06:03:39;;;;;;;4.13;1.13;;;;;;;;;;4967037;28;20179;-79
2022/09/10 06:06:44;;;;;;;3.90;1.30;;;;;;;;;;4955436;28;20214;-78
2022/09/10 06:09:50;;;;;;;3.43;1.20;;;;;;;;;;4988588;28;20187;-79
2022/09/10 06:13:12;;;;;;;2.93;0.90;;;;;;;;;;4978218;28;20175;-79
2022/09/10 06:16:17;;;;;;;3.03;1.03;;;;;;;;;;4966448;28;20526;-79
2022/09/10 06:19:22;;;;;;;2.67;1.27;;;;;;;;;;4989331;28;20626;-79
2022/09/10 06:22:29;;;;;;;4.00;1.00;;;;;;;;;;4967451;28;20281;-79
2022/09/10 06:25:33;;;;;;;1.53;1.00;;;;;;;;;;4988469;28;20306;-79
2022/09/10 06:28:38;;;;;;;2.10;1.10;;;;;;;;;;4966710;28;20198;-79
2022/09/10 06:31:44;;;;;;;1.93;1.00;;;;;;;;;;4978279;28;20379;-79
2022/09/10 06:34:49;;;;;;;2.53;1.00;;;;;;;;;;4966737;28;20175;-79
2022/09/10 06:37:57;;;;;;;1.67;0.90;;;;;;;;;;4977671;28;20179;-79
2022/09/10 06:41:05;;;;;;;2.83;1.07;;;;;;;;;;4989412;28;20211;-79
2022/09/10 06:44:16;;;;;;;1.57;0.83;;;;;;;;;;4978620;28;20523;-79
2022/09/10 06:47:28;;;;;;;1.30;1.00;;;;;;;;;;4966883;28;20183;-79
2022/09/10 06:50:33;;;;;;;4.33;0.90;;;;;;;;;;4977658;28;20175;-79
2022/09/10 06:53:39;;;;;;;1.67;0.80;;;;;;;;;;4978064;28;20171;-80
2022/09/10 06:56:49;;;;;;;2.13;0.87;;;;;;;;;;4966209;28;20527;-79
2022/09/10 06:59:54;;;;;;;2.00;0.80;;;;;;;;;;4966711;28;20182;-78
2022/09/10 07:02:59;;;;;;;1.93;1.00;;;;;;;;;;4977225;28;20666;-79
2022/09/10 07:06:07;;;;;;;0.90;0.70;;;;;;;;;;4977897;28;20203;-79
2022/09/10 07:09:12;;;;;;;1.80;0.90;;;;;;;;;;4966619;28;20515;-79
2022/09/10 07:12:32;;;;;;;2.00;1.10;;;;;;;;;;4955554;28;20227;-79
2022/09/10 07:15:45;;;;;;;3.60;0.83;;;;;;;;;;4966400;28;20194;-79
2022/09/10 07:18:53;;;;;;;5.40;0.90;;;;;;;;;;4966789;28;20179;-79
2022/09/10 07:21:58;;;;;;;1.87;0.90;;;;;;;;;;4966157;28;20223;-79
2022/09/10 07:25:03;;;;;;;1.27;0.70;;;;;;;;;;4977873;28;20183;-79
2022/09/10 07:28:13;;;;;;;1.43;0.70;;;;;;;;;;4966720;28;20179;-80
2022/09/10 07:31:22;;;;;;;2.67;0.80;;;;;;;;;;4955122;28;20689;-79
2022/09/10 07:34:29;;;;;;;1.77;0.77;;;;;;;;;;4976872;28;20622;-79
2022/09/10 07:37:33;;;;;;;2.33;0.70;;;;;;;;;;4990355;28;20183;-79
2022/09/10 07:40:39;;;;;;;1.83;0.80;;;;;;;;;;4969072;28;20187;-79
2022/09/10 07:43:43;;;;;;;2.67;0.73;;;;;;;;;;4980213;28;20176;-79
2022/09/10 07:46:51;;;;;;;2.07;0.80;;;;;;;;;;4980129;28;20179;-79
2022/09/10 07:49:56;;;;;;;1.83;0.60;;;;;;;;;;4980368;28;20626;-79
2022/09/10 07:53:01;;;;;;;6.87;1.00;;;;;;;;;;4969141;28;20226;-79
2022/09/10 07:56:06;;;;;;;2.03;0.70;;;;;;;;;;4979648;28;20661;-79
2022/09/10 07:59:14;;;;;;;2.60;0.80;;;;;;;;;;4968247;28;20202;-79
2022/09/10 08:02:24;;;;;;;1.17;0.67;;;;;;;;;;4968218;28;20709;-78
2022/09/10 08:05:36;;;;;;;2.10;0.80;;;;;;;;;;4979740;28;20666;-78
2022/09/10 08:08:41;;;;;;;0.97;0.70;;;;;;;;;;4967661;28;20171;-79
2022/09/10 08:11:48;;;;;;;1.20;0.70;;;;;;;;;;4978293;28;20219;-79
2022/09/10 08:14:56;;;;;;;0.80;0.60;;;;;;;;;;4967506;28;20210;-78
2022/09/10 08:18:01;;;;;;;4.13;0.90;;;;;;;;;;4989682;28;20179;-79
2022/09/10 08:21:07;;;;;;;1.40;0.80;;;;;;;;;;4967336;28;20685;-79
2022/09/10 08:24:12;;;;;;;1.37;1.00;;;;;;;;;;4978438;28;20626;-79
2022/09/10 08:27:20;;;;;;;0.90;0.60;;;;;;;;;;4989697;28;20187;-78
2022/09/10 08:30:25;;;;;;;0.67;0.67;;;;;;;;;;4977677;28;20187;-79
2022/09/10 08:33:30;;;;;;;1.30;0.57;;;;;;;;;;4988706;28;20214;-79
2022/09/10 08:36:34;;;;;;;0.93;0.73;;;;;;;;;;4989308;28;20187;-79
2022/09/10 08:39:39;;;;;;;1.63;0.90;;;;;;;;;;4967086;28;20175;-79
2022/09/10 08:42:49;;;;;;;2.30;0.90;;;;;;;;;;4990154;28;20218;-79
2022/09/10 08:46:00;;;;;;;1.13;0.70;;;;;;;;;;4968452;28;20183;-79
2022/09/10 08:49:38;;;;;;;1.53;0.60;;;;;;;;;;4966445;28;20183;-79
2022/09/10 08:53:04;;;;;;;1.73;0.60;;;;;;;;;;4978994;28;20234;-79
2022/09/10 08:56:21;;;;;;;1.07;0.60;;;;;;;;;;4990536;28;20187;-79
2022/09/10 08:59:40;;;;;;;1.67;0.70;;;;;;;;;;4966925;28;20187;-79
2022/09/10 09:02:57;;;;;;;2.10;0.60;;;;;;;;;;4966959;28;20211;-79
2022/09/10 09:06:07;;;;;;;0.87;0.60;;;;;;;;;;4979148;28;20195;-79
2022/09/10 09:08:51;;;;;;;3.70;0.70;;;;;;;;;;5074949;28;20813;-78
2022/09/10 09:12:06;;;;;;;0.93;0.50;;;;;;;;;;5075062;28;20222;-78
2022/09/10 09:15:24;;;;;;;2.00;0.77;;;;;;;;;;5064482;28;20179;-79
2022/09/10 09:18:50;;;;;;;1.60;0.70;;;;;;;;;;5052172;28;20172;-79
2022/09/10 09:21:57;;;;;;;2.40;0.60;;;;;;;;;;5074581;28;20211;-78
2022/09/10 09:25:21;;;;;;;1.50;0.60;;;;;;;;;;5063360;28;20191;-79
2022/09/10 09:28:39;;;;;;;1.83;0.70;;;;;;;;;;5063590;28;20207;-78
2022/09/10 09:31:56;;;;;;;2.00;0.77;;;;;;;;;;5051284;28;20586;-78
2022/09/10 09:35:20;;;;;;;1.70;0.70;;;;;;;;;;5077169;28;20176;-79
2022/09/10 09:38:49;;;;;;;0.60;0.50;;;;;;;;;;5073831;28;20179;-79
2022/09/10 09:41:46;;;;;;;1.60;0.60;;;;;;;;;;5017984;23;20600;-88
2022/09/10 09:45:01;;;;;;;0.70;0.60;;;;;;;;;;5004229;28;20177;-88
2022/09/10 09:48:10;;;;;;;2.23;0.50;;;;;;;;;;5003135;28;20205;-89
2022/09/10 09:51:19;;;;;;;2.67;0.90;;;;;;;;;;4991266;28;20190;-89
2022/09/10 09:54:28;;;;;;;1.60;0.70;;;;;;;;;;5001443;28;20629;-89
2022/09/10 09:57:32;;;;;;;3.20;0.67;;;;;;;;;;5001586;28;20193;-88
2022/09/10 10:00:36;;;;;;;1.50;0.70;;;;;;;;;;5001423;28;20185;-89
2022/09/10 10:03:59;;;;;;;3.43;0.80;;;;;;;;;;5000798;28;20177;-88
2022/09/10 10:07:04;;;;;;;7.30;1.00;;;;;;;;;;5011141;28;20217;-89
2022/09/10 10:10:22;;;;;;;5.13;1.30;;;;;;;;;;4989302;28;20178;-88
2022/09/10 10:13:36;;;;;;;5.97;1.33;;;;;;;;;;4988770;28;20181;-88
2022/09/10 10:16:40;;;;;;;13.33;3.33;;;;;;;;;;5000107;28;20217;-88
2022/09/10 10:20:15;;;;;;;7.50;2.97;;;;;;;;;;4977981;28;20182;-88
2022/09/10 10:23:35;;;;;;;0.93;0.50;;;;;;;;;;4986622;28;20183;-88
2022/09/10 10:26:42;;;;;;;2.90;0.80;;;;;;;;;;4986000;28;20218;-88
2022/09/10 10:29:52;;;;;;;1.63;0.70;;;;;;;;;;4986595;28;20643;-87
2022/09/10 10:32:58;;;;;;;1.73;0.70;;;;;;;;;;4986033;28;20202;-88
2022/09/10 10:36:20;;;;;;;1.70;1.00;;;;;;;;;;4997015;28;20214;-87
2022/09/10 10:39:42;;;;;;;0.80;0.70;;;;;;;;;;4985813;28;20195;-87
2022/09/10 10:43:06;;;;;;;3.47;0.90;;;;;;;;;;4987025;28;20198;-88
